sensor_id;sensor_type;location;lat;lon;timestamp;temperature;humidity
15217;DHT22;7711;46.634;14.318;2022-08-19T00:00:11;18.40;99.90
15217;DHT22;7711;46.634;14.318;2022-08-19T00:02:43;18.40;99.90
15217;DHT22;7711;46.634;14.318;2022-08-19T00:05:14;18.40;99.90
15217;DHT22;7711;46.634;14.318;2022-08-19T00:07:42;18.40;99.90
15217;DHT22;7711;46.634;14.318;2022-08-19T00:10:12;18.40;99.90
15217;DHT22;7711;46.634;14.318;2022-08-19T00:12:44;18.40;99.90
15217;DHT22;7711;46.634;14.318;2022-08-19T00:15:13;18.40;99.90
15217;DHT22;7711;46.634;14.318;2022-08-19T00:17:44;18.30;99.90
15217;DHT22;7711;46.634;14.318;2022-08-19T00:20:17;18.30;99.90
15217;DHT22;7711;46.634;14.318;2022-08-19T00:22:45;18.40;99.90
15217;DHT22;7711;46.634;14.318;2022-08-19T00:25:14;18.40;99.90
15217;DHT22;7711;46.634;14.318;2022-08-19T00:27:42;18.30;99.90
15217;DHT22;7711;46.634;14.318;2022-08-19T00:30:10;18.30;99.90
15217;DHT22;7711;46.634;14.318;2022-08-19T00:32:38;18.30;99.90
15217;DHT22;7711;46.634;14.318;2022-08-19T00:35:08;18.40;99.90
15217;DHT22;7711;46.634;14.318;2022-08-19T00:37:35;18.40;99.90
15217;DHT22;7711;46.634;14.318;2022-08-19T00:40:04;18.30;99.90
15217;DHT22;7711;46.634;14.318;2022-08-19T00:42:34;18.30;99.90
15217;DHT22;7711;46.634;14.318;2022-08-19T00:45:11;18.30;99.90
15217;DHT22;7711;46.634;14.318;2022-08-19T00:47:38;18.30;99.90
15217;DHT22;7711;46.634;14.318;2022-08-19T00:50:14;18.30;99.90
15217;DHT22;7711;46.634;14.318;2022-08-19T00:52:46;18.30;99.90
15217;DHT22;7711;46.634;14.318;2022-08-19T00:55:17;18.30;99.90
15217;DHT22;7711;46.634;14.318;2022-08-19T00:57:48;18.30;99.90
15217;DHT22;7711;46.634;14.318;2022-08-19T01:00:18;18.30;99.90
15217;DHT22;7711;46.634;14.318;2022-08-19T01:02:48;18.30;99.90
15217;DHT22;7711;46.634;14.318;2022-08-19T01:05:21;18.20;99.90
15217;DHT22;7711;46.634;14.318;2022-08-19T01:07:53;18.20;99.90
15217;DHT22;7711;46.634;14.318;2022-08-19T01:10:24;18.30;99.90
15217;DHT22;7711;46.634;14.318;2022-08-19T01:12:52;18.30;99.90
15217;DHT22;7711;46.634;14.318;2022-08-19T01:15:26;18.30;99.90
15217;DHT22;7711;46.634;14.318;2022-08-19T01:17:55;18.30;99.90
15217;DHT22;7711;46.634;14.318;2022-08-19T01:20:25;18.30;99.90
15217;DHT22;7711;46.634;14.318;2022-08-19T01:22:56;18.40;99.90
15217;DHT22;7711;46.634;14.318;2022-08-19T01:25:26;18.40;99.90
15217;DHT22;7711;46.634;14.318;2022-08-19T01:27:54;18.40;99.90
15217;DHT22;7711;46.634;14.318;2022-08-19T01:30:24;18.40;99.90
15217;DHT22;7711;46.634;14.318;2022-08-19T01:32:52;18.40;99.90
15217;DHT22;7711;46.634;14.318;2022-08-19T01:35:24;18.40;99.90
15217;DHT22;7711;46.634;14.318;2022-08-19T01:37:56;18.40;99.90
15217;DHT22;7711;46.634;14.318;2022-08-19T01:40:31;18.40;99.90
15217;DHT22;7711;46.634;14.318;2022-08-19T01:42:59;18.40;99.90
15217;DHT22;7711;46.634;14.318;2022-08-19T01:45:28;18.40;99.90
15217;DHT22;7711;46.634;14.318;2022-08-19T01:47:57;18.30;99.90
15217;DHT22;7711;46.634;14.318;2022-08-19T01:50:26;18.30;99.90
15217;DHT22;7711;46.634;14.318;2022-08-19T01:52:57;18.40;99.90
15217;DHT22;7711;46.634;14.318;2022-08-19T01:55:28;18.30;99.90
15217;DHT22;7711;46.634;14.318;2022-08-19T01:57:59;18.10;99.90
15217;DHT22;7711;46.634;14.318;2022-08-19T02:00:30;18.00;99.90
15217;DHT22;7711;46.634;14.318;2022-08-19T02:02:59;18.00;99.90
15217;DHT22;7711;46.634;14.318;2022-08-19T02:05:31;18.00;99.90
15217;DHT22;7711;46.634;14.318;2022-08-19T02:08:01;18.00;99.90
15217;DHT22;7711;46.634;14.318;2022-08-19T02:10:28;18.10;99.90
15217;DHT22;7711;46.634;14.318;2022-08-19T02:12:56;18.10;99.90
15217;DHT22;7711;46.634;14.318;2022-08-19T02:15:23;18.10;99.90
15217;DHT22;7711;46.634;14.318;2022-08-19T02:17:52;18.00;99.90
15217;DHT22;7711;46.634;14.318;2022-08-19T02:20:22;18.10;99.90
15217;DHT22;7711;46.634;14.318;2022-08-19T02:22:52;18.10;99.90
15217;DHT22;7711;46.634;14.318;2022-08-19T02:25:21;18.10;99.90
15217;DHT22;7711;46.634;14.318;2022-08-19T02:27:48;18.10;99.90
15217;DHT22;7711;46.634;14.318;2022-08-19T02:30:16;18.10;99.90
15217;DHT22;7711;46.634;14.318;2022-08-19T02:32:44;18.00;99.90
15217;DHT22;7711;46.634;14.318;2022-08-19T02:35:14;18.00;99.90
15217;DHT22;7711;46.634;14.318;2022-08-19T02:37:41;17.70;99.90
15217;DHT22;7711;46.634;14.318;2022-08-19T02:40:28;17.60;99.90
15217;DHT22;7711;46.634;14.318;2022-08-19T02:42:56;17.50;99.90
15217;DHT22;7711;46.634;14.318;2022-08-19T02:45:23;17.70;99.90
15217;DHT22;7711;46.634;14.318;2022-08-19T02:47:51;17.70;99.90
15217;DHT22;7711;46.634;14.318;2022-08-19T02:50:18;17.80;99.90
15217;DHT22;7711;46.634;14.318;2022-08-19T02:52:49;17.80;99.90
15217;DHT22;7711;46.634;14.318;2022-08-19T02:55:20;17.70;99.90
15217;DHT22;7711;46.634;14.318;2022-08-19T02:57:48;17.70;99.90
15217;DHT22;7711;46.634;14.318;2022-08-19T03:00:16;17.80;99.90
15217;DHT22;7711;46.634;14.318;2022-08-19T03:02:43;17.80;99.90
15217;DHT22;7711;46.634;14.318;2022-08-19T03:05:12;17.70;99.90
15217;DHT22;7711;46.634;14.318;2022-08-19T03:07:39;17.60;99.90
15217;DHT22;7711;46.634;14.318;2022-08-19T03:10:07;17.50;99.90
15217;DHT22;7711;46.634;14.318;2022-08-19T03:12:36;17.50;99.90
15217;DHT22;7711;46.634;14.318;2022-08-19T03:15:07;17.60;99.90
15217;DHT22;7711;46.634;14.318;2022-08-19T03:17:34;17.70;99.90
15217;DHT22;7711;46.634;14.318;2022-08-19T03:20:03;17.60;99.90
15217;DHT22;7711;46.634;14.318;2022-08-19T03:22:30;17.60;99.90
15217;DHT22;7711;46.634;14.318;2022-08-19T03:24:59;17.60;99.90
15217;DHT22;7711;46.634;14.318;2022-08-19T03:27:26;17.60;99.90
15217;DHT22;7711;46.634;14.318;2022-08-19T03:29:54;17.60;99.90
15217;DHT22;7711;46.634;14.318;2022-08-19T03:32:23;17.60;99.90
15217;DHT22;7711;46.634;14.318;2022-08-19T03:34:51;17.60;99.90
15217;DHT22;7711;46.634;14.318;2022-08-19T03:37:18;17.60;99.90
15217;DHT22;7711;46.634;14.318;2022-08-19T03:39:47;17.60;99.90
15217;DHT22;7711;46.634;14.318;2022-08-19T03:42:14;17.70;99.90
15217;DHT22;7711;46.634;14.318;2022-08-19T03:44:42;17.80;99.90
15217;DHT22;7711;46.634;14.318;2022-08-19T03:47:11;17.80;99.90
15217;DHT22;7711;46.634;14.318;2022-08-19T03:49:43;17.70;99.90
15217;DHT22;7711;46.634;14.318;2022-08-19T03:52:12;17.70;99.90
15217;DHT22;7711;46.634;14.318;2022-08-19T03:54:42;17.60;99.90
15217;DHT22;7711;46.634;14.318;2022-08-19T03:57:12;17.70;99.90
15217;DHT22;7711;46.634;14.318;2022-08-19T03:59:39;17.70;99.90
15217;DHT22;7711;46.634;14.318;2022-08-19T04:02:12;17.70;99.90
15217;DHT22;7711;46.634;14.318;2022-08-19T04:04:42;17.70;99.90
15217;DHT22;7711;46.634;14.318;2022-08-19T04:07:15;17.80;99.90
15217;DHT22;7711;46.634;14.318;2022-08-19T04:09:43;17.80;99.90
15217;DHT22;7711;46.634;14.318;2022-08-19T04:12:12;17.80;99.90
15217;DHT22;7711;46.634;14.318;2022-08-19T04:14:39;17.70;99.90
15217;DHT22;7711;46.634;14.318;2022-08-19T04:17:10;17.80;99.90
15217;DHT22;7711;46.634;14.318;2022-08-19T04:19:41;17.80;99.90
15217;DHT22;7711;46.634;14.318;2022-08-19T04:22:09;17.80;99.90
15217;DHT22;7711;46.634;14.318;2022-08-19T04:24:37;17.80;99.90
15217;DHT22;7711;46.634;14.318;2022-08-19T04:27:09;17.80;99.90
15217;DHT22;7711;46.634;14.318;2022-08-19T04:29:36;17.70;99.90
15217;DHT22;7711;46.634;14.318;2022-08-19T04:32:05;17.70;99.90
15217;DHT22;7711;46.634;14.318;2022-08-19T04:34:34;17.90;99.90
15217;DHT22;7711;46.634;14.318;2022-08-19T04:37:05;17.80;99.90
15217;DHT22;7711;46.634;14.318;2022-08-19T04:39:38;17.90;99.90
15217;DHT22;7711;46.634;14.318;2022-08-19T04:42:26;17.90;99.90
15217;DHT22;7711;46.634;14.318;2022-08-19T04:45:06;17.90;99.90
15217;DHT22;7711;46.634;14.318;2022-08-19T04:47:35;17.90;99.90
15217;DHT22;7711;46.634;14.318;2022-08-19T04:50:03;18.00;99.90
15217;DHT22;7711;46.634;14.318;2022-08-19T04:52:32;18.00;99.90
15217;DHT22;7711;46.634;14.318;2022-08-19T04:55:00;17.90;99.90
15217;DHT22;7711;46.634;14.318;2022-08-19T04:57:27;18.00;99.90
15217;DHT22;7711;46.634;14.318;2022-08-19T04:59:55;18.00;99.90
15217;DHT22;7711;46.634;14.318;2022-08-19T05:02:22;17.90;99.90
15217;DHT22;7711;46.634;14.318;2022-08-19T05:04:51;17.90;99.90
15217;DHT22;7711;46.634;14.318;2022-08-19T05:07:22;17.90;99.90
15217;DHT22;7711;46.634;14.318;2022-08-19T05:09:51;17.90;99.90
15217;DHT22;7711;46.634;14.318;2022-08-19T05:12:18;17.80;99.90
15217;DHT22;7711;46.634;14.318;2022-08-19T05:14:48;17.80;99.90
15217;DHT22;7711;46.634;14.318;2022-08-19T05:17:15;17.80;99.90
15217;DHT22;7711;46.634;14.318;2022-08-19T05:19:42;17.70;99.90
15217;DHT22;7711;46.634;14.318;2022-08-19T05:22:27;17.80;99.90
15217;DHT22;7711;46.634;14.318;2022-08-19T05:25:05;17.70;99.90
15217;DHT22;7711;46.634;14.318;2022-08-19T05:27:33;17.70;99.90
15217;DHT22;7711;46.634;14.318;2022-08-19T05:30:02;17.70;99.90
15217;DHT22;7711;46.634;14.318;2022-08-19T05:32:29;17.70;99.90
15217;DHT22;7711;46.634;14.318;2022-08-19T05:34:56;17.70;99.90
15217;DHT22;7711;46.634;14.318;2022-08-19T05:37:24;17.70;99.90
15217;DHT22;7711;46.634;14.318;2022-08-19T05:39:53;17.70;99.90
15217;DHT22;7711;46.634;14.318;2022-08-19T05:42:23;17.70;99.90
15217;DHT22;7711;46.634;14.318;2022-08-19T05:44:54;17.70;99.90
15217;DHT22;7711;46.634;14.318;2022-08-19T05:47:22;17.60;99.90
15217;DHT22;7711;46.634;14.318;2022-08-19T05:49:51;17.60;99.90
15217;DHT22;7711;46.634;14.318;2022-08-19T05:52:20;17.70;99.90
15217;DHT22;7711;46.634;14.318;2022-08-19T05:54:50;17.70;99.90
15217;DHT22;7711;46.634;14.318;2022-08-19T05:57:22;17.60;99.90
15217;DHT22;7711;46.634;14.318;2022-08-19T05:59:51;17.70;99.90
15217;DHT22;7711;46.634;14.318;2022-08-19T06:02:19;17.70;99.90
15217;DHT22;7711;46.634;14.318;2022-08-19T06:04:49;17.70;99.90
15217;DHT22;7711;46.634;14.318;2022-08-19T06:07:18;17.80;99.90
15217;DHT22;7711;46.634;14.318;2022-08-19T06:09:46;17.80;99.90
15217;DHT22;7711;46.634;14.318;2022-08-19T06:12:15;17.90;99.90
15217;DHT22;7711;46.634;14.318;2022-08-19T06:14:43;18.00;99.90
15217;DHT22;7711;46.634;14.318;2022-08-19T06:17:11;18.00;99.90
15217;DHT22;7711;46.634;14.318;2022-08-19T06:19:38;18.10;99.90
15217;DHT22;7711;46.634;14.318;2022-08-19T06:22:07;18.10;99.90
15217;DHT22;7711;46.634;14.318;2022-08-19T06:24:37;18.30;99.90
15217;DHT22;7711;46.634;14.318;2022-08-19T06:27:04;18.50;99.90
15217;DHT22;7711;46.634;14.318;2022-08-19T06:29:33;18.60;99.90
15217;DHT22;7711;46.634;14.318;2022-08-19T06:32:03;18.70;99.90
15217;DHT22;7711;46.634;14.318;2022-08-19T06:34:33;18.70;99.90
15217;DHT22;7711;46.634;14.318;2022-08-19T06:37:03;18.90;99.90
15217;DHT22;7711;46.634;14.318;2022-08-19T06:39:36;19.00;99.90
15217;DHT22;7711;46.634;14.318;2022-08-19T06:42:07;19.20;99.90
15217;DHT22;7711;46.634;14.318;2022-08-19T06:44:38;19.20;99.90
15217;DHT22;7711;46.634;14.318;2022-08-19T06:47:09;19.30;99.90
15217;DHT22;7711;46.634;14.318;2022-08-19T06:49:38;19.20;99.90
15217;DHT22;7711;46.634;14.318;2022-08-19T06:52:09;19.40;99.90
15217;DHT22;7711;46.634;14.318;2022-08-19T06:54:38;19.40;99.90
15217;DHT22;7711;46.634;14.318;2022-08-19T06:57:06;19.60;99.90
15217;DHT22;7711;46.634;14.318;2022-08-19T06:59:35;19.90;99.90
15217;DHT22;7711;46.634;14.318;2022-08-19T07:02:06;20.10;99.90
15217;DHT22;7711;46.634;14.318;2022-08-19T07:04:36;20.40;99.90
15217;DHT22;7711;46.634;14.318;2022-08-19T07:07:07;20.60;99.90
15217;DHT22;7711;46.634;14.318;2022-08-19T07:09:36;20.70;99.90
15217;DHT22;7711;46.634;14.318;2022-08-19T07:12:08;20.60;99.90
15217;DHT22;7711;46.634;14.318;2022-08-19T07:14:37;20.40;99.90
15217;DHT22;7711;46.634;14.318;2022-08-19T07:17:07;20.40;99.90
15217;DHT22;7711;46.634;14.318;2022-08-19T07:19:39;20.70;99.90
15217;DHT22;7711;46.634;14.318;2022-08-19T07:22:08;20.70;99.90
15217;DHT22;7711;46.634;14.318;2022-08-19T07:24:38;20.40;99.90
15217;DHT22;7711;46.634;14.318;2022-08-19T07:27:10;20.40;99.90
15217;DHT22;7711;46.634;14.318;2022-08-19T07:29:38;20.60;99.90
15217;DHT22;7711;46.634;14.318;2022-08-19T07:32:08;20.70;99.90
15217;DHT22;7711;46.634;14.318;2022-08-19T07:34:41;20.80;99.90
15217;DHT22;7711;46.634;14.318;2022-08-19T07:37:11;20.70;99.90
15217;DHT22;7711;46.634;14.318;2022-08-19T07:39:39;20.60;99.90
15217;DHT22;7711;46.634;14.318;2022-08-19T07:42:12;20.70;99.90
15217;DHT22;7711;46.634;14.318;2022-08-19T07:44:41;20.80;99.90
15217;DHT22;7711;46.634;14.318;2022-08-19T07:47:12;20.80;99.90
15217;DHT22;7711;46.634;14.318;2022-08-19T07:49:41;21.00;99.90
15217;DHT22;7711;46.634;14.318;2022-08-19T07:52:10;20.90;99.90
15217;DHT22;7711;46.634;14.318;2022-08-19T07:54:39;20.90;99.90
15217;DHT22;7711;46.634;14.318;2022-08-19T07:57:08;20.90;99.90
15217;DHT22;7711;46.634;14.318;2022-08-19T07:59:38;21.00;99.90
15217;DHT22;7711;46.634;14.318;2022-08-19T08:02:08;21.00;99.90
15217;DHT22;7711;46.634;14.318;2022-08-19T08:04:37;21.10;99.90
15217;DHT22;7711;46.634;14.318;2022-08-19T08:07:22;21.40;99.90
15217;DHT22;7711;46.634;14.318;2022-08-19T08:10:23;21.70;99.90
15217;DHT22;7711;46.634;14.318;2022-08-19T08:12:51;21.90;99.90
15217;DHT22;7711;46.634;14.318;2022-08-19T08:15:18;21.80;99.90
15217;DHT22;7711;46.634;14.318;2022-08-19T08:17:47;21.60;99.90
15217;DHT22;7711;46.634;14.318;2022-08-19T08:20:19;21.10;99.90
15217;DHT22;7711;46.634;14.318;2022-08-19T08:22:50;21.00;99.90
15217;DHT22;7711;46.634;14.318;2022-08-19T08:25:36;21.10;99.90
15217;DHT22;7711;46.634;14.318;2022-08-19T08:28:04;21.30;99.90
15217;DHT22;7711;46.634;14.318;2022-08-19T08:30:31;21.10;99.90
15217;DHT22;7711;46.634;14.318;2022-08-19T08:33:01;21.40;99.90
15217;DHT22;7711;46.634;14.318;2022-08-19T08:35:30;21.50;99.90
15217;DHT22;7711;46.634;14.318;2022-08-19T08:38:00;21.30;99.90
15217;DHT22;7711;46.634;14.318;2022-08-19T08:40:40;21.40;99.90
15217;DHT22;7711;46.634;14.318;2022-08-19T08:43:27;21.20;99.90
15217;DHT22;7711;46.634;14.318;2022-08-19T08:46:00;21.30;99.90
15217;DHT22;7711;46.634;14.318;2022-08-19T08:48:35;21.20;99.90
15217;DHT22;7711;46.634;14.318;2022-08-19T08:51:10;21.30;99.90
15217;DHT22;7711;46.634;14.318;2022-08-19T08:53:41;21.30;99.90
15217;DHT22;7711;46.634;14.318;2022-08-19T08:56:09;21.50;99.90
15217;DHT22;7711;46.634;14.318;2022-08-19T08:58:46;21.70;99.90
15217;DHT22;7711;46.634;14.318;2022-08-19T09:01:15;21.60;99.90
15217;DHT22;7711;46.634;14.318;2022-08-19T09:03:44;21.90;99.90
15217;DHT22;7711;46.634;14.318;2022-08-19T09:06:19;21.70;99.90
15217;DHT22;7711;46.634;14.318;2022-08-19T09:08:57;21.90;99.90
15217;DHT22;7711;46.634;14.318;2022-08-19T09:11:39;21.80;99.90
15217;DHT22;7711;46.634;14.318;2022-08-19T09:14:17;21.90;99.90
15217;DHT22;7711;46.634;14.318;2022-08-19T09:16:45;21.40;99.90
15217;DHT22;7711;46.634;14.318;2022-08-19T09:19:14;21.20;99.90
15217;DHT22;7711;46.634;14.318;2022-08-19T09:21:43;21.20;99.90
15217;DHT22;7711;46.634;14.318;2022-08-19T09:24:11;21.50;99.90
15217;DHT22;7711;46.634;14.318;2022-08-19T09:26:38;21.40;99.90
15217;DHT22;7711;46.634;14.318;2022-08-19T09:29:05;21.50;99.90
15217;DHT22;7711;46.634;14.318;2022-08-19T09:31:33;21.70;99.90
15217;DHT22;7711;46.634;14.318;2022-08-19T09:34:00;22.30;99.90
15217;DHT22;7711;46.634;14.318;2022-08-19T09:36:31;22.30;99.90
15217;DHT22;7711;46.634;14.318;2022-08-19T09:39:01;22.20;99.90
15217;DHT22;7711;46.634;14.318;2022-08-19T09:41:28;21.90;99.90
15217;DHT22;7711;46.634;14.318;2022-08-19T09:43:56;22.10;99.90
15217;DHT22;7711;46.634;14.318;2022-08-19T09:46:27;22.50;99.90
15217;DHT22;7711;46.634;14.318;2022-08-19T09:48:56;22.20;99.90
15217;DHT22;7711;46.634;14.318;2022-08-19T09:51:27;22.00;99.90
15217;DHT22;7711;46.634;14.318;2022-08-19T09:54:01;22.10;99.90
15217;DHT22;7711;46.634;14.318;2022-08-19T09:56:30;22.30;99.90
15217;DHT22;7711;46.634;14.318;2022-08-19T09:58:58;22.30;99.90
15217;DHT22;7711;46.634;14.318;2022-08-19T10:01:27;22.30;99.90
15217;DHT22;7711;46.634;14.318;2022-08-19T10:03:57;22.30;99.90
15217;DHT22;7711;46.634;14.318;2022-08-19T10:06:27;22.30;99.90
15217;DHT22;7711;46.634;14.318;2022-08-19T10:08:57;22.30;99.90
15217;DHT22;7711;46.634;14.318;2022-08-19T10:11:33;22.60;99.90
15217;DHT22;7711;46.634;14.318;2022-08-19T10:14:04;22.60;99.90
15217;DHT22;7711;46.634;14.318;2022-08-19T10:16:35;22.50;99.90
15217;DHT22;7711;46.634;14.318;2022-08-19T10:19:02;22.30;99.90
15217;DHT22;7711;46.634;14.318;2022-08-19T10:21:32;22.20;99.90
15217;DHT22;7711;46.634;14.318;2022-08-19T10:24:04;22.50;99.90
15217;DHT22;7711;46.634;14.318;2022-08-19T10:26:38;22.40;99.90
15217;DHT22;7711;46.634;14.318;2022-08-19T10:29:09;22.60;99.90
15217;DHT22;7711;46.634;14.318;2022-08-19T10:31:37;22.40;99.90
15217;DHT22;7711;46.634;14.318;2022-08-19T10:34:04;22.50;99.90
15217;DHT22;7711;46.634;14.318;2022-08-19T10:36:35;22.20;99.90
15217;DHT22;7711;46.634;14.318;2022-08-19T10:39:05;22.00;99.90
15217;DHT22;7711;46.634;14.318;2022-08-19T10:41:36;22.10;99.90
15217;DHT22;7711;46.634;14.318;2022-08-19T10:44:08;22.30;99.90
15217;DHT22;7711;46.634;14.318;2022-08-19T10:46:41;22.00;99.90
15217;DHT22;7711;46.634;14.318;2022-08-19T10:49:14;21.80;99.90
15217;DHT22;7711;46.634;14.318;2022-08-19T10:51:46;21.70;99.90
15217;DHT22;7711;46.634;14.318;2022-08-19T10:54:32;21.60;99.90
15217;DHT22;7711;46.634;14.318;2022-08-19T10:57:15;21.70;99.90
15217;DHT22;7711;46.634;14.318;2022-08-19T10:59:44;21.80;99.90
15217;DHT22;7711;46.634;14.318;2022-08-19T11:02:15;22.00;99.90
15217;DHT22;7711;46.634;14.318;2022-08-19T11:04:42;22.00;99.90
15217;DHT22;7711;46.634;14.318;2022-08-19T11:07:09;21.80;99.90
15217;DHT22;7711;46.634;14.318;2022-08-19T11:09:39;21.80;99.90
15217;DHT22;7711;46.634;14.318;2022-08-19T11:12:10;22.00;99.90
15217;DHT22;7711;46.634;14.318;2022-08-19T11:14:39;22.00;99.90
15217;DHT22;7711;46.634;14.318;2022-08-19T11:17:06;22.20;99.90
15217;DHT22;7711;46.634;14.318;2022-08-19T11:19:38;22.20;99.90
15217;DHT22;7711;46.634;14.318;2022-08-19T11:22:08;22.40;99.90
15217;DHT22;7711;46.634;14.318;2022-08-19T11:24:35;22.50;99.90
15217;DHT22;7711;46.634;14.318;2022-08-19T11:27:05;22.30;99.90
15217;DHT22;7711;46.634;14.318;2022-08-19T11:29:33;22.30;99.90
15217;DHT22;7711;46.634;14.318;2022-08-19T11:32:03;22.00;99.90
15217;DHT22;7711;46.634;14.318;2022-08-19T11:34:34;21.50;99.90
15217;DHT22;7711;46.634;14.318;2022-08-19T11:37:04;21.60;99.90
15217;DHT22;7711;46.634;14.318;2022-08-19T11:39:34;21.50;99.90
15217;DHT22;7711;46.634;14.318;2022-08-19T11:42:04;21.30;99.90
15217;DHT22;7711;46.634;14.318;2022-08-19T11:44:53;21.60;99.90
15217;DHT22;7711;46.634;14.318;2022-08-19T11:47:22;21.90;99.90
15217;DHT22;7711;46.634;14.318;2022-08-19T11:49:49;21.90;99.90
15217;DHT22;7711;46.634;14.318;2022-08-19T11:52:18;21.80;99.90
15217;DHT22;7711;46.634;14.318;2022-08-19T11:54:46;21.80;99.90
15217;DHT22;7711;46.634;14.318;2022-08-19T11:57:15;21.90;99.90
15217;DHT22;7711;46.634;14.318;2022-08-19T11:59:48;21.60;99.90
15217;DHT22;7711;46.634;14.318;2022-08-19T12:02:15;21.40;99.90
15217;DHT22;7711;46.634;14.318;2022-08-19T12:04:44;21.20;99.90
15217;DHT22;7711;46.634;14.318;2022-08-19T12:07:14;21.00;99.90
15217;DHT22;7711;46.634;14.318;2022-08-19T12:09:41;20.90;99.90
15217;DHT22;7711;46.634;14.318;2022-08-19T12:12:09;20.80;99.90
15217;DHT22;7711;46.634;14.318;2022-08-19T12:14:36;20.90;99.90
15217;DHT22;7711;46.634;14.318;2022-08-19T12:17:04;20.90;99.90
15217;DHT22;7711;46.634;14.318;2022-08-19T12:19:36;21.10;99.90
15217;DHT22;7711;46.634;14.318;2022-08-19T12:22:06;21.00;99.90
15217;DHT22;7711;46.634;14.318;2022-08-19T12:24:35;20.90;99.90
15217;DHT22;7711;46.634;14.318;2022-08-19T12:27:06;20.90;99.90
15217;DHT22;7711;46.634;14.318;2022-08-19T12:29:33;21.00;99.90
15217;DHT22;7711;46.634;14.318;2022-08-19T12:32:03;20.90;99.90
15217;DHT22;7711;46.634;14.318;2022-08-19T12:34:32;20.70;99.90
15217;DHT22;7711;46.634;14.318;2022-08-19T12:37:02;20.60;99.90
15217;DHT22;7711;46.634;14.318;2022-08-19T12:39:34;20.60;99.90
15217;DHT22;7711;46.634;14.318;2022-08-19T12:42:01;20.30;99.90
15217;DHT22;7711;46.634;14.318;2022-08-19T12:44:31;20.30;99.90
15217;DHT22;7711;46.634;14.318;2022-08-19T12:46:58;20.40;99.90
15217;DHT22;7711;46.634;14.318;2022-08-19T12:49:30;20.30;99.90
15217;DHT22;7711;46.634;14.318;2022-08-19T12:51:59;20.20;99.90
15217;DHT22;7711;46.634;14.318;2022-08-19T12:54:30;20.10;99.90
15217;DHT22;7711;46.634;14.318;2022-08-19T12:56:59;20.10;99.90
15217;DHT22;7711;46.634;14.318;2022-08-19T12:59:27;20.10;99.90
15217;DHT22;7711;46.634;14.318;2022-08-19T13:01:55;19.90;99.90
15217;DHT22;7711;46.634;14.318;2022-08-19T13:04:23;19.80;99.90
15217;DHT22;7711;46.634;14.318;2022-08-19T13:06:50;19.90;99.90
15217;DHT22;7711;46.634;14.318;2022-08-19T13:09:18;20.00;99.90
15217;DHT22;7711;46.634;14.318;2022-08-19T13:11:47;20.00;99.90
15217;DHT22;7711;46.634;14.318;2022-08-19T13:14:14;19.60;99.90
15217;DHT22;7711;46.634;14.318;2022-08-19T13:16:43;19.50;99.90
15217;DHT22;7711;46.634;14.318;2022-08-19T13:19:11;19.30;99.90
15217;DHT22;7711;46.634;14.318;2022-08-19T13:21:38;19.10;99.90
15217;DHT22;7711;46.634;14.318;2022-08-19T13:24:08;19.20;99.90
15217;DHT22;7711;46.634;14.318;2022-08-19T13:26:35;19.40;99.90
15217;DHT22;7711;46.634;14.318;2022-08-19T13:29:07;19.30;99.90
15217;DHT22;7711;46.634;14.318;2022-08-19T13:31:53;19.20;99.90
15217;DHT22;7711;46.634;14.318;2022-08-19T13:34:40;19.20;99.90
15217;DHT22;7711;46.634;14.318;2022-08-19T13:37:10;19.00;99.90
15217;DHT22;7711;46.634;14.318;2022-08-19T13:39:37;19.20;99.90
15217;DHT22;7711;46.634;14.318;2022-08-19T13:42:07;19.10;99.90
15217;DHT22;7711;46.634;14.318;2022-08-19T13:44:40;19.20;99.90
15217;DHT22;7711;46.634;14.318;2022-08-19T13:47:11;19.00;99.90
15217;DHT22;7711;46.634;14.318;2022-08-19T13:49:43;19.00;99.90
15217;DHT22;7711;46.634;14.318;2022-08-19T13:52:13;19.10;99.90
15217;DHT22;7711;46.634;14.318;2022-08-19T13:54:40;19.20;99.90
15217;DHT22;7711;46.634;14.318;2022-08-19T13:57:10;19.50;99.90
15217;DHT22;7711;46.634;14.318;2022-08-19T13:59:37;19.60;99.90
15217;DHT22;7711;46.634;14.318;2022-08-19T14:02:07;19.80;99.90
15217;DHT22;7711;46.634;14.318;2022-08-19T14:04:37;20.90;99.90
15217;DHT22;7711;46.634;14.318;2022-08-19T14:07:04;20.60;99.90
15217;DHT22;7711;46.634;14.318;2022-08-19T14:09:32;21.00;99.90
15217;DHT22;7711;46.634;14.318;2022-08-19T14:12:02;21.50;99.90
15217;DHT22;7711;46.634;14.318;2022-08-19T14:14:29;21.80;99.90
15217;DHT22;7711;46.634;14.318;2022-08-19T14:17:00;21.90;99.90
15217;DHT22;7711;46.634;14.318;2022-08-19T14:19:28;21.50;99.90
15217;DHT22;7711;46.634;14.318;2022-08-19T14:21:56;22.30;99.90
15217;DHT22;7711;46.634;14.318;2022-08-19T14:24:26;22.60;99.90
15217;DHT22;7711;46.634;14.318;2022-08-19T14:26:55;23.20;99.90
15217;DHT22;7711;46.634;14.318;2022-08-19T14:29:24;24.60;99.90
15217;DHT22;7711;46.634;14.318;2022-08-19T14:31:51;24.60;99.90
15217;DHT22;7711;46.634;14.318;2022-08-19T14:34:24;25.80;99.90
15217;DHT22;7711;46.634;14.318;2022-08-19T14:36:54;25.20;99.90
15217;DHT22;7711;46.634;14.318;2022-08-19T14:39:21;25.40;99.90
15217;DHT22;7711;46.634;14.318;2022-08-19T14:41:48;25.20;99.90
15217;DHT22;7711;46.634;14.318;2022-08-19T14:44:16;24.30;99.90
15217;DHT22;7711;46.634;14.318;2022-08-19T14:46:44;24.70;99.90
15217;DHT22;7711;46.634;14.318;2022-08-19T14:49:13;24.70;99.90
15217;DHT22;7711;46.634;14.318;2022-08-19T14:51:43;24.00;99.90
15217;DHT22;7711;46.634;14.318;2022-08-19T14:54:13;24.20;99.90
15217;DHT22;7711;46.634;14.318;2022-08-19T14:56:41;25.00;99.90
15217;DHT22;7711;46.634;14.318;2022-08-19T14:59:09;24.90;99.90
15217;DHT22;7711;46.634;14.318;2022-08-19T15:01:36;25.50;99.90
15217;DHT22;7711;46.634;14.318;2022-08-19T15:04:04;26.10;99.90
15217;DHT22;7711;46.634;14.318;2022-08-19T15:06:32;25.80;99.90
15217;DHT22;7711;46.634;14.318;2022-08-19T15:09:05;26.20;99.90
15217;DHT22;7711;46.634;14.318;2022-08-19T15:11:37;26.20;99.90
15217;DHT22;7711;46.634;14.318;2022-08-19T15:14:05;26.80;99.90
15217;DHT22;7711;46.634;14.318;2022-08-19T15:16:35;26.30;99.90
15217;DHT22;7711;46.634;14.318;2022-08-19T15:19:07;25.80;99.90
15217;DHT22;7711;46.634;14.318;2022-08-19T15:21:37;25.90;99.90
15217;DHT22;7711;46.634;14.318;2022-08-19T15:24:05;25.40;99.90
15217;DHT22;7711;46.634;14.318;2022-08-19T15:26:33;25.10;99.90
15217;DHT22;7711;46.634;14.318;2022-08-19T15:29:03;25.40;99.90
15217;DHT22;7711;46.634;14.318;2022-08-19T15:31:31;25.30;99.90
15217;DHT22;7711;46.634;14.318;2022-08-19T15:34:03;25.70;99.90
15217;DHT22;7711;46.634;14.318;2022-08-19T15:36:31;25.80;99.90
15217;DHT22;7711;46.634;14.318;2022-08-19T15:39:00;26.30;99.90
15217;DHT22;7711;46.634;14.318;2022-08-19T15:41:29;26.10;99.90
15217;DHT22;7711;46.634;14.318;2022-08-19T15:43:59;25.00;99.90
15217;DHT22;7711;46.634;14.318;2022-08-19T15:46:30;25.30;99.90